Time;durP1;ratioP1;P1;durP2;ratioP2;P2;SDS_P1;SDS_P2;PMS_P1;PMS_P2;Temp;Humidity;BMP_temperature;BMP_pressure;BME280_temperature;BME280_humidity;BME280_pressure;Samples;Min_cycle;Max_cycle;Signal;HPM_P1;HPM_P2
2023/06/19 00:01:59;;;;;;;8.13;4.03;;;;;;;22.09;73.00;100307.00;4978143;28;20022;-92
2023/06/19 00:04:26;;;;;;;12.95;3.88;;;;;;;21.94;73.12;100270.72;5001940;28;20053;-91
2023/06/19 00:06:52;;;;;;;6.13;3.83;;;;;;;22.09;73.00;100289.72;5019286;28;20090;-93
2023/06/19 00:09:18;;;;;;;13.07;4.68;;;;;;;22.23;73.11;100316.09;5003006;28;20042;-94
2023/06/19 00:11:44;;;;;;;7.03;4.22;;;;;;;22.23;73.32;100307.88;5000678;28;20029;-93
2023/06/19 00:14:09;;;;;;;11.77;4.32;;;;;;;22.09;73.20;100278.75;4989473;28;20034;-90
2023/06/19 00:16:35;;;;;;;9.32;4.82;;;;;;;22.32;73.42;100314.84;5016565;28;20041;-90
2023/06/19 00:19:03;;;;;;;12.02;4.63;;;;;;;22.16;73.21;100282.38;5002026;28;20036;-92
2023/06/19 00:21:29;;;;;;;11.77;4.35;;;;;;;22.20;73.22;100287.19;5022660;28;20037;-91
2023/06/19 00:23:55;;;;;;;7.25;4.15;;;;;;;22.30;73.45;100299.66;5043684;28;20067;-92
2023/06/19 00:26:25;;;;;;;22.20;4.50;;;;;;;22.40;73.17;100303.69;5031052;28;20021;-91
2023/06/19 00:28:51;;;;;;;6.80;3.42;;;;;;;22.38;73.07;100302.22;4999780;28;20030;-94
2023/06/19 00:31:18;;;;;;;11.95;4.97;;;;;;;22.36;73.43;100291.44;4999195;28;20062;-95
2023/06/19 00:33:47;;;;;;;14.48;4.80;;;;;;;22.50;73.07;100309.59;4982461;28;20065;-93
2023/06/19 00:36:14;;;;;;;10.77;4.80;;;;;;;22.53;73.10;100311.94;4998091;28;20013;-91
2023/06/19 00:38:39;;;;;;;20.17;5.20;;;;;;;22.32;73.25;100276.50;4959637;28;20051;-94
2023/06/19 00:41:05;;;;;;;16.08;4.90;;;;;;;22.26;73.20;100262.78;4943626;29;20044;-95
2023/06/19 00:43:32;;;;;;;10.63;4.72;;;;;;;22.46;73.47;100302.84;4959406;28;20124;-92
2023/06/19 00:45:58;;;;;;;11.65;4.95;;;;;;;22.39;73.55;100291.03;4935538;29;20031;-91
2023/06/19 00:48:23;;;;;;;12.15;5.20;;;;;;;22.52;73.80;100302.00;4956844;28;20051;-95
2023/06/19 00:50:50;;;;;;;14.88;4.97;;;;;;;22.45;73.72;100295.66;4943095;29;20028;-93
2023/06/19 00:53:17;;;;;;;15.00;4.30;;;;;;;22.45;73.76;100301.16;4943173;28;20077;-92
2023/06/19 00:55:44;;;;;;;10.25;4.35;;;;;;;22.37;73.86;100282.19;4959487;28;20035;-93
2023/06/19 00:58:10;;;;;;;12.98;4.93;;;;;;;22.35;73.64;100272.50;4942990;28;20044;-94
2023/06/19 01:00:35;;;;;;;16.98;4.93;;;;;;;22.53;73.82;100309.19;4970519;28;20050;-91
2023/06/19 01:03:01;;;;;;;13.50;5.25;;;;;;;22.58;73.49;100303.06;4992064;28;20040;-91
2023/06/19 01:05:26;;;;;;;11.35;4.68;;;;;;;22.50;73.67;100290.41;4976148;28;20042;-91
2023/06/19 01:08:22;;;;;;;20.73;6.03;;;;;;;22.59;73.64;100308.34;4975971;28;20026;-91
2023/06/19 01:10:54;;;;;;;20.92;5.60;;;;;;;22.56;73.89;100292.31;5016347;28;20069;-93
2023/06/19 01:13:27;;;;;;;10.05;5.03;;;;;;;22.65;73.17;100312.16;5034162;28;20025;-93
2023/06/19 01:15:54;;;;;;;24.90;5.65;;;;;;;22.55;72.88;100301.59;4992279;28;20077;-94
2023/06/19 01:18:21;;;;;;;12.48;4.85;;;;;;;22.42;73.58;100287.88;4993185;28;20041;-92
2023/06/19 01:20:47;;;;;;;18.63;5.78;;;;;;;22.40;73.30;100292.72;4976939;28;20038;-92
2023/06/19 01:23:12;;;;;;;8.90;5.22;;;;;;;22.36;73.39;100283.22;4995497;28;20058;-92
2023/06/19 01:25:39;;;;;;;15.40;5.47;;;;;;;22.40;73.86;100317.38;5001197;28;20054;-92
2023/06/19 01:28:09;;;;;;;15.65;6.88;;;;;;;22.33;74.54;100308.31;5014425;28;20021;-93
2023/06/19 01:30:36;;;;;;;12.05;5.25;;;;;;;22.42;74.72;100312.53;5000781;28;20046;-93
2023/06/19 01:33:26;;;;;;;14.73;5.63;;;;;;;22.39;74.95;100314.84;5016714;28;20061;-93
2023/06/19 01:35:52;;;;;;;10.32;6.28;;;;;;;22.29;75.02;100293.34;4998524;28;20050;-92
2023/06/19 01:38:21;;;;;;;14.65;6.38;;;;;;;22.14;75.26;100281.72;4992760;28;20026;-92
2023/06/19 01:40:48;;;;;;;8.60;6.07;;;;;;;22.25;75.40;100292.06;4994582;28;20077;-93
2023/06/19 01:43:15;;;;;;;16.20;5.97;;;;;;;22.39;75.16;100303.88;4993456;28;20066;-94
2023/06/19 01:45:41;;;;;;;20.50;6.97;;;;;;;22.27;75.45;100279.00;4994819;28;20108;-92
2023/06/19 01:48:08;;;;;;;11.18;6.50;;;;;;;22.41;75.07;100305.38;5018093;28;20032;-92
2023/06/19 01:50:34;;;;;;;13.25;6.82;;;;;;;22.27;75.54;100286.38;5034904;28;20026;-93
2023/06/19 01:52:59;;;;;;;15.70;6.82;;;;;;;22.43;75.57;100308.75;5035452;28;20029;-93
2023/06/19 01:55:25;;;;;;;12.73;6.47;;;;;;;22.41;75.80;100299.91;5017159;28;20592;-93
2023/06/19 01:57:51;;;;;;;20.33;6.60;;;;;;;22.30;75.46;100273.09;5019145;28;20036;-93
2023/06/19 02:00:17;;;;;;;15.25;7.63;;;;;;;22.36;75.49;100290.59;5021780;28;20460;-94
2023/06/19 02:02:43;;;;;;;14.68;6.95;;;;;;;22.43;75.42;100314.22;5018421;28;20029;-94
2023/06/19 02:05:09;;;;;;;24.17;6.93;;;;;;;22.38;75.27;100299.47;5018892;28;20492;-93
2023/06/19 02:07:34;;;;;;;13.32;7.25;;;;;;;22.43;75.45;100308.75;5018447;28;20460;-93
2023/06/19 02:10:00;;;;;;;14.27;8.32;;;;;;;22.56;75.52;100324.38;5019244;28;20021;-93
2023/06/19 02:12:25;;;;;;;20.05;6.75;;;;;;;22.44;75.64;100295.91;5016575;28;20453;-88
2023/06/19 02:14:51;;;;;;;15.25;7.80;;;;;;;22.54;75.65;100321.81;5034781;28;20503;-89
2023/06/19 02:17:17;;;;;;;11.52;7.18;;;;;;;22.54;75.99;100321.81;5033148;28;20037;-92
2023/06/19 02:19:42;;;;;;;20.20;7.15;;;;;;;22.44;75.84;100310.44;5016885;28;20044;-90
2023/06/19 02:22:08;;;;;;;14.30;8.10;;;;;;;22.43;76.26;100321.59;5024525;28;20092;-91
2023/06/19 02:24:34;;;;;;;16.45;7.80;;;;;;;22.33;76.54;100319.25;5027644;28;20037;-92
2023/06/19 02:27:00;;;;;;;16.85;8.68;;;;;;;22.36;76.63;100312.50;5033132;28;20034;-93
2023/06/19 02:29:26;;;;;;;17.63;7.82;;;;;;;22.37;76.62;100314.22;5036841;28;20025;-93
2023/06/19 02:31:51;;;;;;;51.50;9.50;;;;;;;22.43;76.76;100327.09;5032713;28;20044;-91
2023/06/19 02:34:17;;;;;;;15.10;8.20;;;;;;;22.26;76.71;100304.72;5021872;28;20034;-92
2023/06/19 02:36:43;;;;;;;12.40;8.02;;;;;;;22.24;76.63;100321.38;5034862;28;20036;-91
2023/06/19 02:39:09;;;;;;;38.10;10.45;;;;;;;22.11;77.35;100288.44;5019255;28;20500;-85
2023/06/19 02:41:35;;;;;;;29.73;9.35;;;;;;;22.19;77.36;100309.34;5014524;28;20434;-93
2023/06/19 02:44:01;;;;;;;21.13;8.57;;;;;;;22.25;77.32;100308.50;5013479;28;20034;-91
2023/06/19 02:46:27;;;;;;;17.13;8.77;;;;;;;22.27;77.19;100320.09;5015743;28;20098;-95
2023/06/19 02:48:52;;;;;;;22.05;9.10;;;;;;;22.16;77.28;100315.25;5017555;28;20030;-93
2023/06/19 02:51:18;;;;;;;17.52;9.15;;;;;;;22.35;77.20;100336.38;5020725;28;20038;-93
2023/06/19 02:53:43;;;;;;;21.17;9.57;;;;;;;22.30;77.13;100325.16;5022333;28;20103;-93
2023/06/19 02:56:11;;;;;;;17.55;8.63;;;;;;;22.41;77.08;100343.75;5026307;28;20064;-91
2023/06/19 02:58:37;;;;;;;17.02;10.90;;;;;;;22.40;77.18;100336.56;5033225;28;20080;-94
2023/06/19 03:01:03;;;;;;;18.10;9.35;;;;;;;22.46;76.99;100354.91;5034289;28;20030;-91
2023/06/19 03:03:29;;;;;;;18.98;9.65;;;;;;;22.30;76.96;100341.59;5014768;28;20033;-90
2023/06/19 03:05:55;;;;;;;14.88;9.05;;;;;;;22.33;77.21;100341.19;5031014;28;20032;-92
2023/06/19 03:08:21;;;;;;;21.80;9.50;;;;;;;22.32;77.43;100342.25;5012809;28;20026;-90
2023/06/19 03:10:46;;;;;;;21.42;10.02;;;;;;;22.42;77.38;100353.63;5013209;28;20026;-85
2023/06/19 03:13:13;;;;;;;28.60;10.38;;;;;;;22.48;76.84;100366.50;5011456;28;20057;-86
2023/06/19 03:15:39;;;;;;;23.63;10.68;;;;;;;22.42;77.35;100356.38;5013700;28;20092;-86
2023/06/19 03:18:06;;;;;;;16.52;9.95;;;;;;;22.42;77.44;100355.53;5015810;28;20026;-87
2023/06/19 03:20:32;;;;;;;27.85;11.32;;;;;;;22.36;77.19;100343.50;5017179;28;20401;-87
2023/06/19 03:22:58;;;;;;;16.98;10.20;;;;;;;22.43;77.11;100357.22;5030828;28;20084;-88
2023/06/19 03:25:23;;;;;;;21.48;11.52;;;;;;;22.42;76.84;100342.69;5035289;28;20022;-88
2023/06/19 03:27:49;;;;;;;19.95;11.27;;;;;;;22.37;76.98;100356.16;5049838;28;20071;-87
2023/06/19 03:30:18;;;;;;;18.52;12.18;;;;;;;22.41;76.72;100362.94;5033434;28;20022;-87
2023/06/19 03:32:43;;;;;;;25.10;11.38;;;;;;;22.25;77.15;100341.41;5032902;28;20091;-85
2023/06/19 03:35:10;;;;;;;18.00;11.68;;;;;;;22.26;77.39;100351.31;5032209;28;20140;-87
2023/06/19 03:37:35;;;;;;;19.92;12.15;;;;;;;22.17;77.26;100347.03;5032047;28;20033;-87
2023/06/19 03:40:01;;;;;;;26.80;11.40;;;;;;;22.12;77.72;100327.66;5031778;28;20026;-86
2023/06/19 03:42:26;;;;;;;32.65;13.32;;;;;;;22.26;77.69;100345.84;5033888;28;20085;-86
2023/06/19 03:44:52;;;;;;;19.88;12.07;;;;;;;22.11;77.99;100345.13;5031402;28;20077;-86
2023/06/19 03:47:17;;;;;;;28.08;13.68;;;;;;;22.24;77.67;100358.88;5031099;28;20091;-86
2023/06/19 03:49:43;;;;;;;21.60;11.75;;;;;;;22.24;77.64;100361.59;5031189;28;20083;-86
2023/06/19 03:52:08;;;;;;;24.85;11.80;;;;;;;22.25;77.85;100363.31;5031681;28;20163;-84
2023/06/19 03:54:34;;;;;;;30.58;13.48;;;;;;;22.20;77.55;100347.47;5030877;28;20025;-86
2023/06/19 03:56:59;;;;;;;23.00;12.63;;;;;;;22.21;77.40;100343.69;5031825;28;20036;-86
2023/06/19 03:59:25;;;;;;;32.00;14.80;;;;;;;22.33;76.84;100365.84;5015937;28;20468;-86
2023/06/19 04:01:51;;;;;;;26.30;13.35;;;;;;;22.33;77.18;100373.22;5014851;28;20563;-90
2023/06/19 04:04:16;;;;;;;28.10;12.93;;;;;;;22.33;77.25;100374.06;5014698;28;20080;-90
2023/06/19 04:06:42;;;;;;;19.80;12.30;;;;;;;22.12;77.24;100350.41;5015813;28;20613;-81
2023/06/19 04:09:07;;;;;;;28.10;13.18;;;;;;;22.28;76.97;100376.59;5030652;28;20143;-83
2023/06/19 04:11:33;;;;;;;23.50;12.30;;;;;;;22.14;77.84;100370.22;5030993;28;20031;-87
2023/06/19 04:13:58;;;;;;;29.80;13.45;;;;;;;22.13;77.21;100352.13;5032903;28;20029;-89
2023/06/19 04:16:24;;;;;;;25.35;12.35;;;;;;;22.22;77.39;100382.91;5035226;28;20022;-88
2023/06/19 04:18:49;;;;;;;19.40;12.35;;;;;;;22.29;77.26;100388.41;5038529;28;20026;-87
2023/06/19 04:21:15;;;;;;;28.73;12.70;;;;;;;22.21;76.67;100367.50;5047508;28;20044;-91
2023/06/19 04:23:40;;;;;;;22.70;12.63;;;;;;;22.22;76.62;100375.53;5053455;28;20057;-89
2023/06/19 04:26:06;;;;;;;37.88;12.90;;;;;;;22.34;76.07;100392.22;5051922;28;20079;-87
2023/06/19 04:28:31;;;;;;;27.23;13.27;;;;;;;22.28;75.97;100393.03;5049399;28;20037;-91
2023/06/19 04:31:05;;;;;;;26.35;11.50;;;;;;;22.26;75.55;100395.16;5028471;28;20029;-82
2023/06/19 04:33:32;;;;;;;26.00;10.57;;;;;;;22.22;75.72;100393.88;5042069;28;20073;-82
2023/06/19 04:35:57;;;;;;;25.75;10.88;;;;;;;22.22;75.43;100393.88;5033687;28;20029;-81
2023/06/19 04:38:23;;;;;;;18.70;10.32;;;;;;;22.27;74.95;100385.84;5031506;28;20456;-82
2023/06/19 04:40:51;;;;;;;30.83;10.48;;;;;;;22.20;74.78;100391.31;5030639;28;20034;-83
2023/06/19 04:43:17;;;;;;;16.52;9.88;;;;;;;22.25;74.59;100387.97;5030543;28;20032;-83
2023/06/19 04:45:42;;;;;;;43.42;9.50;;;;;;;22.27;74.14;100394.06;5027402;28;20096;-83
2023/06/19 04:48:08;;;;;;;18.52;8.80;;;;;;;22.39;73.75;100406.13;5029883;28;20029;-84
2023/06/19 04:50:33;;;;;;;22.55;9.55;;;;;;;22.42;73.34;100389.25;5015665;28;20091;-81
2023/06/19 04:53:01;;;;;;;14.65;7.95;;;;;;;22.25;72.99;100377.00;5035052;28;20053;-87
2023/06/19 04:55:27;;;;;;;43.40;11.52;;;;;;;22.30;73.11;100385.44;5035268;28;20034;-86
2023/06/19 04:57:52;;;;;;;30.65;8.90;;;;;;;22.28;72.22;100387.56;5037463;28;20482;-85
2023/06/19 05:00:23;;;;;;;35.85;12.13;;;;;;;22.32;71.87;100388.84;5037917;28;20025;-88
2023/06/19 05:02:49;;;;;;;24.45;8.63;;;;;;;22.43;71.92;100406.56;5039824;28;20068;-84
2023/06/19 05:05:15;;;;;;;29.17;8.60;;;;;;;22.44;71.74;100409.13;5039400;28;20035;-83
2023/06/19 05:07:41;;;;;;;28.58;8.15;;;;;;;22.41;71.27;100409.53;5036637;28;20093;-81
2023/06/19 05:10:07;;;;;;;16.35;6.85;;;;;;;22.47;70.88;100425.13;5035057;28;20103;-81
2023/06/19 05:12:34;;;;;;;21.73;7.30;;;;;;;22.47;70.81;100416.91;5036071;28;20505;-83
2023/06/19 05:15:00;;;;;;;14.60;6.00;;;;;;;22.37;70.82;100407.38;5037556;28;20137;-85
2023/06/19 05:17:25;;;;;;;31.10;7.43;;;;;;;22.37;70.98;100432.06;5041992;28;20060;-82
2023/06/19 05:19:50;;;;;;;17.33;6.40;;;;;;;22.17;71.04;100412.78;5045645;28;20043;-81
2023/06/19 05:22:18;;;;;;;13.77;5.93;;;;;;;22.17;70.59;100410.03;5042285;28;20049;-82
2023/06/19 05:24:44;;;;;;;24.85;6.47;;;;;;;22.14;70.79;100407.72;5035811;28;20473;-82
2023/06/19 05:27:10;;;;;;;20.20;6.00;;;;;;;22.32;69.96;100427.22;5036311;28;20030;-82
2023/06/19 05:29:35;;;;;;;7.60;5.18;;;;;;;22.31;69.54;100425.50;5038535;28;20028;-81
2023/06/19 05:32:01;;;;;;;11.40;5.15;;;;;;;22.22;69.19;100429.47;5032835;28;20086;-83
2023/06/19 05:34:27;;;;;;;18.63;4.40;;;;;;;22.35;68.35;100442.38;5033508;28;20417;-80
2023/06/19 05:36:52;;;;;;;10.98;4.68;;;;;;;22.33;67.41;100438.97;5032712;28;20032;-88
2023/06/19 05:39:18;;;;;;;12.48;4.20;;;;;;;22.24;67.28;100424.63;5034731;28;20221;-83
2023/06/19 05:41:45;;;;;;;33.33;5.38;;;;;;;22.33;67.13;100423.38;5033965;28;20085;-83
2023/06/19 05:44:15;;;;;;;18.52;4.40;;;;;;;22.30;66.43;100410.09;5034285;28;20037;-81
2023/06/19 05:46:40;;;;;;;18.48;4.22;;;;;;;22.42;66.47;100443.22;5000734;28;20030;-85
2023/06/19 05:49:06;;;;;;;21.23;4.53;;;;;;;22.49;65.91;100441.38;5014502;28;20100;-82
2023/06/19 05:51:31;;;;;;;19.88;5.18;;;;;;;22.61;66.27;100448.78;4996096;28;20033;-82
2023/06/19 05:54:03;;;;;;;12.80;4.25;;;;;;;22.66;64.84;100437.22;5013035;28;20463;-87
2023/06/19 05:56:29;;;;;;;19.10;4.82;;;;;;;22.85;64.33;100449.28;5014558;28;20034;-84
2023/06/19 05:58:54;;;;;;;18.00;4.10;;;;;;;22.95;64.00;100434.09;5013487;28;20417;-84
2023/06/19 06:01:20;;;;;;;32.50;4.40;;;;;;;23.17;63.04;100468.53;5012992;28;20115;-81
2023/06/19 06:03:45;;;;;;;22.15;4.45;;;;;;;23.19;61.73;100446.34;5014205;28;20026;-88
2023/06/19 06:06:11;;;;;;;13.20;3.40;;;;;;;23.14;61.61;100451.63;5015012;28;20052;-83
2023/06/19 06:08:39;;;;;;;13.98;5.10;;;;;;;23.10;61.70;100444.88;5017994;28;20065;-88
2023/06/19 06:11:05;;;;;;;42.72;6.32;;;;;;;23.15;62.17;100428.63;5015385;28;20037;-87
2023/06/19 06:13:39;;;;;;;82.82;8.98;;;;;;;23.27;62.05;100433.25;5027992;28;20049;-86
2023/06/19 06:16:05;;;;;;;17.92;2.90;;;;;;;23.20;61.74;100423.34;5033951;28;20032;-85
2023/06/19 06:18:30;;;;;;;47.45;4.82;;;;;;;23.16;60.92;100389.16;5030434;28;20053;-90
2023/06/19 06:20:56;;;;;;;21.58;4.78;;;;;;;23.49;61.14;100417.44;5029812;28;20078;-89
2023/06/19 06:23:22;;;;;;;26.70;4.05;;;;;;;23.61;60.46;100412.97;5033087;28;20069;-90
2023/06/19 06:25:48;;;;;;;10.00;4.07;;;;;;;23.63;60.73;100390.81;5019066;28;20065;-88
2023/06/19 06:28:14;;;;;;;10.85;3.78;;;;;;;23.80;60.21;100395.59;5010960;28;20069;-80
2023/06/19 06:30:40;;;;;;;10.38;4.28;;;;;;;23.92;59.95;100392.19;5023056;28;20018;-91
2023/06/19 06:33:05;;;;;;;22.83;4.82;;;;;;;23.98;59.39;100399.56;5000509;28;20426;-84
2023/06/19 06:35:34;;;;;;;18.08;3.88;;;;;;;23.72;59.06;100365.66;5034029;28;20196;-94
2023/06/19 06:37:59;;;;;;;34.50;4.57;;;;;;;23.87;59.01;100378.25;5024746;28;20038;-87
2023/06/19 06:40:25;;;;;;;9.82;3.30;;;;;;;23.97;58.96;100389.63;4995882;28;20060;-84
2023/06/19 06:42:50;;;;;;;19.85;3.42;;;;;;;24.14;58.48;100390.84;5013514;28;20041;-90
2023/06/19 06:45:16;;;;;;;28.63;5.78;;;;;;;24.17;58.17;100373.94;5014061;28;20065;-87
2023/06/19 06:47:41;;;;;;;17.52;4.18;;;;;;;24.23;57.69;100373.06;5010167;28;20026;-83
2023/06/19 06:50:08;;;;;;;13.27;3.92;;;;;;;24.43;57.01;100379.28;5009839;28;20445;-83
2023/06/19 06:52:33;;;;;;;9.65;4.20;;;;;;;24.53;56.88;100387.03;4992747;28;20041;-83
2023/06/19 06:54:59;;;;;;;37.22;5.18;;;;;;;24.56;55.71;100356.34;5010436;28;20032;-81
2023/06/19 06:57:25;;;;;;;19.15;4.82;;;;;;;24.59;55.66;100340.25;4993209;28;20032;-84
2023/06/19 06:59:50;;;;;;;38.78;6.47;;;;;;;25.02;55.52;100389.03;5011824;28;20091;-84
2023/06/19 07:02:16;;;;;;;24.70;4.50;;;;;;;24.96;54.35;100362.41;4994022;28;20453;-83
2023/06/19 07:04:41;;;;;;;21.90;4.07;;;;;;;25.30;54.75;100382.00;5013288;28;20057;-81
2023/06/19 07:07:08;;;;;;;8.90;4.05;;;;;;;25.44;54.42;100385.50;5012602;28;20026;-86
2023/06/19 07:09:34;;;;;;;15.40;4.50;;;;;;;25.58;54.68;100366.94;5013992;28;20094;-85
2023/06/19 07:12:01;;;;;;;14.57;4.60;;;;;;;25.83;53.61;100387.00;5028937;28;20049;-87
2023/06/19 07:14:27;;;;;;;14.73;4.40;;;;;;;25.85;52.50;100401.38;5024759;28;20157;-84
2023/06/19 07:16:53;;;;;;;20.90;4.22;;;;;;;25.81;52.46;100384.44;5011031;28;20109;-82
2023/06/19 07:19:18;;;;;;;13.73;4.15;;;;;;;25.82;51.91;100382.53;5010344;28;20401;-84
2023/06/19 07:21:44;;;;;;;11.32;4.28;;;;;;;25.57;52.28;100371.59;5010666;28;20056;-84
2023/06/19 07:24:09;;;;;;;25.25;3.90;;;;;;;25.76;52.06;100387.06;5011533;28;20026;-83
2023/06/19 07:26:35;;;;;;;11.73;4.13;;;;;;;25.67;51.13;100368.31;5011959;28;20029;-82
2023/06/19 07:29:00;;;;;;;13.70;5.05;;;;;;;25.74;51.41;100391.97;5012061;28;20108;-83
2023/06/19 07:31:26;;;;;;;25.23;6.72;;;;;;;25.47;51.26;100365.75;5012431;28;20038;-84
2023/06/19 07:33:51;;;;;;;17.00;6.90;;;;;;;25.42;51.73;100368.34;5017437;28;20030;-81
2023/06/19 07:36:17;;;;;;;17.17;5.82;;;;;;;25.67;51.73;100388.44;5011312;28;20084;-82
2023/06/19 07:38:43;;;;;;;26.67;6.95;;;;;;;25.72;52.15;100387.72;5010065;28;20409;-83
2023/06/19 07:41:10;;;;;;;11.00;4.65;;;;;;;25.73;51.27;100382.00;5010965;28;20030;-84
2023/06/19 07:43:37;;;;;;;10.55;4.47;;;;;;;25.88;50.35;100393.50;5010527;28;20413;-83
2023/06/19 07:46:03;;;;;;;9.98;4.50;;;;;;;26.06;50.21;100378.00;5020534;28;20068;-82
2023/06/19 07:48:29;;;;;;;11.90;6.30;;;;;;;26.37;50.27;100388.84;5030885;28;20021;-83
2023/06/19 07:50:54;;;;;;;25.05;5.15;;;;;;;26.47;50.24;100390.00;5031192;28;20405;-83
2023/06/19 07:53:20;;;;;;;13.90;4.80;;;;;;;26.61;49.54;100407.19;5014542;28;20037;-82
2023/06/19 07:55:46;;;;;;;22.60;6.38;;;;;;;26.46;49.46;100379.19;5034307;28;20030;-83
2023/06/19 07:58:11;;;;;;;27.25;7.82;;;;;;;26.66;49.56;100382.50;5038744;28;20473;-82
2023/06/19 08:00:37;;;;;;;24.13;5.32;;;;;;;26.77;49.89;100401.00;5032263;28;20120;-84
2023/06/19 08:03:02;;;;;;;11.07;3.53;;;;;;;26.61;49.64;100412.69;5032196;28;20109;-81
2023/06/19 08:05:28;;;;;;;9.02;3.83;;;;;;;26.58;49.60;100407.66;5030888;28;20036;-81
2023/06/19 08:07:53;;;;;;;24.45;4.93;;;;;;;26.59;50.06;100406.59;5045542;28;20034;-85
2023/06/19 08:10:19;;;;;;;38.85;6.35;;;;;;;26.49;51.01;100409.06;5029564;28;20081;-83
2023/06/19 08:12:45;;;;;;;12.07;4.00;;;;;;;26.67;50.22;100433.81;5032165;28;20043;-83
2023/06/19 08:15:13;;;;;;;14.27;3.97;;;;;;;26.79;50.33;100431.09;5012214;28;21033;-84
2023/06/19 08:17:38;;;;;;;5.93;3.50;;;;;;;26.61;50.19;100401.66;5011701;28;20034;-83
2023/06/19 08:20:06;;;;;;;11.48;5.05;;;;;;;26.92;50.79;100442.84;5029476;28;20053;-83
2023/06/19 08:22:32;;;;;;;22.67;4.00;;;;;;;26.97;50.37;100440.19;5029463;28;20053;-84
2023/06/19 08:24:58;;;;;;;31.25;6.68;;;;;;;27.09;50.61;100447.69;5032897;28;20107;-83
2023/06/19 08:27:23;;;;;;;26.05;5.07;;;;;;;27.06;50.63;100454.53;5030340;28;20068;-81
2023/06/19 08:29:48;;;;;;;6.88;3.67;;;;;;;26.97;50.72;100461.47;4999748;28;20026;-79
2023/06/19 08:32:14;;;;;;;13.60;4.47;;;;;;;26.93;50.75;100455.56;5031635;28;20119;-81
2023/06/19 08:34:43;;;;;;;8.75;3.20;;;;;;;26.77;50.51;100456.19;5015894;28;20026;-81
2023/06/19 08:37:08;;;;;;;10.02;3.90;;;;;;;26.57;50.81;100466.69;5032856;28;20121;-81
2023/06/19 08:39:37;;;;;;;38.13;7.20;;;;;;;26.67;51.27;100483.50;5032752;28;20131;-83
2023/06/19 08:42:04;;;;;;;11.80;3.80;;;;;;;26.40;51.77;100471.13;5033209;28;20091;-82
2023/06/19 08:44:29;;;;;;;12.20;4.38;;;;;;;26.45;52.17;100480.38;5033601;28;20096;-82
2023/06/19 08:46:55;;;;;;;4.03;3.63;;;;;;;26.43;51.54;100492.72;5015263;28;20033;-82
2023/06/19 08:49:20;;;;;;;13.48;3.85;;;;;;;26.32;52.22;100475.06;5032972;28;20041;-84
2023/06/19 08:51:46;;;;;;;4.80;3.50;;;;;;;26.39;51.89;100475.00;5034049;28;20041;-84
2023/06/19 08:54:13;;;;;;;23.95;5.43;;;;;;;26.25;52.12;100476.19;5022811;28;20036;-85
2023/06/19 08:56:38;;;;;;;14.05;4.20;;;;;;;26.21;51.71;100458.44;5036891;28;20036;-82
2023/06/19 08:59:12;;;;;;;15.60;5.28;;;;;;;26.41;52.04;100489.38;5042334;28;20033;-82
2023/06/19 09:01:38;;;;;;;18.92;5.05;;;;;;;26.40;51.79;100493.19;5055565;28;20040;-90
2023/06/19 09:04:11;;;;;;;12.23;4.53;;;;;;;26.39;51.98;100480.50;5053850;28;20504;-87
2023/06/19 09:06:51;;;;;;;31.35;5.05;;;;;;;26.49;52.09;100489.03;5049498;28;20096;-83
2023/06/19 09:09:20;;;;;;;12.95;4.90;;;;;;;26.57;50.84;100497.03;5042350;28;20026;-84
2023/06/19 09:12:04;;;;;;;16.23;5.82;;;;;;;26.50;50.13;100485.22;5025990;28;20489;-83
2023/06/19 09:14:39;;;;;;;16.00;4.72;;;;;;;26.48;49.87;100499.22;5034589;28;20022;-84
2023/06/19 09:17:07;;;;;;;26.15;4.90;;;;;;;26.54;50.09;100489.22;5033233;28;20033;-85
2023/06/19 09:19:34;;;;;;;14.80;4.15;;;;;;;26.55;49.46;100501.06;5031537;28;20120;-83
2023/06/19 09:22:08;;;;;;;6.50;3.80;;;;;;;26.38;49.47;100478.81;5031782;28;20056;-83
2023/06/19 09:24:38;;;;;;;13.40;4.07;;;;;;;26.50;49.99;100496.25;5032257;28;20049;-83
2023/06/19 09:27:17;;;;;;;17.95;5.57;;;;;;;26.40;50.13;100465.63;5031360;28;20026;-83
2023/06/19 09:29:45;;;;;;;6.60;3.50;;;;;;;26.60;49.39;100496.56;5032406;28;20375;-83
2023/06/19 09:32:20;;;;;;;6.10;3.63;;;;;;;26.51;49.72;100484.97;5014206;28;20025;-82
2023/06/19 09:34:46;;;;;;;13.52;3.75;;;;;;;26.67;49.51;100513.84;5032052;28;20068;-83
2023/06/19 09:37:13;;;;;;;23.63;4.90;;;;;;;26.64;49.38;100495.00;5031279;28;20053;-83
2023/06/19 09:39:39;;;;;;;10.52;4.80;;;;;;;26.62;49.35;100496.31;5032089;28;20029;-83
2023/06/19 09:42:07;;;;;;;19.33;4.75;;;;;;;26.74;49.15;100500.81;4996499;28;20025;-83
2023/06/19 09:44:40;;;;;;;13.60;3.92;;;;;;;26.71;49.52;100486.63;5032169;28;20038;-81
2023/06/19 09:47:22;;;;;;;13.82;3.92;;;;;;;26.79;49.64;100509.22;5032127;28;20033;-83
2023/06/19 09:49:55;;;;;;;10.82;4.43;;;;;;;26.71;49.47;100497.69;5014879;28;20037;-83
2023/06/19 09:52:23;;;;;;;4.07;3.03;;;;;;;26.79;49.32;100513.91;5014871;28;20032;-83
2023/06/19 09:54:53;;;;;;;19.63;5.70;;;;;;;26.77;48.71;100516.91;5016469;28;20022;-81
2023/06/19 09:57:19;;;;;;;22.83;5.93;;;;;;;26.87;47.68;100521.91;5034029;28;20021;-82
2023/06/19 09:59:52;;;;;;;9.90;3.20;;;;;;;26.83;47.56;100499.44;5040280;28;20037;-82
2023/06/19 10:02:20;;;;;;;20.38;4.50;;;;;;;26.86;47.38;100487.94;5049007;28;20077;-83
2023/06/19 10:04:49;;;;;;;31.42;5.40;;;;;;;27.16;47.44;100520.19;5040231;28;20097;-83
2023/06/19 10:07:18;;;;;;;9.45;3.83;;;;;;;27.27;47.75;100519.41;5031761;28;20029;-84
2023/06/19 10:10:08;;;;;;;31.20;6.35;;;;;;;27.32;47.70;100516.75;5032124;28;20041;-84
2023/06/19 10:12:45;;;;;;;6.88;3.78;;;;;;;27.37;46.80;100508.59;4996612;28;20116;-84
2023/06/19 10:15:19;;;;;;;12.23;5.82;;;;;;;27.46;46.77;100519.09;5031819;28;20045;-84
2023/06/19 10:17:59;;;;;;;17.75;4.25;;;;;;;27.55;46.61;100508.56;5031472;28;20156;-83
2023/06/19 10:20:32;;;;;;;11.80;4.25;;;;;;;27.68;47.18;100479.84;5031592;28;20076;-83
2023/06/19 10:23:05;;;;;;;7.85;3.58;;;;;;;28.13;46.24;100478.19;5032871;28;20050;-83
2023/06/19 10:25:33;;;;;;;10.82;4.00;;;;;;;28.62;45.38;100493.31;5031790;28;20034;-83
2023/06/19 10:27:59;;;;;;;31.95;5.25;;;;;;;29.00;45.18;100504.63;5036692;28;20133;-84
2023/06/19 10:30:25;;;;;;;8.45;3.00;;;;;;;29.26;44.58;100502.34;5032299;28;20040;-80
2023/06/19 10:32:51;;;;;;;7.90;4.25;;;;;;;29.06;43.49;100475.06;5031682;28;20041;-83
2023/06/19 10:35:21;;;;;;;20.55;4.20;;;;;;;29.37;43.93;100509.75;5014106;28;20052;-82
2023/06/19 10:37:47;;;;;;;19.42;4.60;;;;;;;29.52;44.35;100510.84;5013396;28;20037;-82
2023/06/19 10:40:13;;;;;;;9.75;3.95;;;;;;;29.79;43.67;100510.16;5031349;28;20026;-85
2023/06/19 10:42:43;;;;;;;9.23;2.95;;;;;;;29.83;42.85;100501.13;5031129;28;20029;-84
2023/06/19 10:45:12;;;;;;;8.63;3.72;;;;;;;29.80;42.09;100500.75;5031373;28;20029;-84
2023/06/19 10:47:39;;;;;;;20.15;4.00;;;;;;;29.86;41.60;100502.53;5030482;28;20132;-86
2023/06/19 10:50:09;;;;;;;5.43;3.42;;;;;;;29.68;41.35;100495.31;5033174;28;20045;-82
2023/06/19 10:52:35;;;;;;;8.13;4.35;;;;;;;29.73;41.89;100512.00;5032593;28;20026;-82
2023/06/19 10:55:03;;;;;;;9.40;3.50;;;;;;;29.65;41.88;100509.66;5031328;28;20032;-83
2023/06/19 10:57:32;;;;;;;7.65;3.97;;;;;;;29.83;42.19;100505.81;5038292;28;20502;-85
2023/06/19 10:59:58;;;;;;;10.30;3.80;;;;;;;29.68;42.67;100486.97;5022417;28;20021;-84
2023/06/19 11:02:25;;;;;;;12.25;4.22;;;;;;;29.89;43.01;100499.25;5032862;28;20026;-83
2023/06/19 11:04:54;;;;;;;10.15;3.95;;;;;;;30.12;42.38;100494.31;5030797;28;20168;-83
2023/06/19 11:07:22;;;;;;;5.75;4.00;;;;;;;30.30;41.48;100500.69;5033355;28;20025;-82
2023/06/19 11:09:48;;;;;;;6.55;3.15;;;;;;;30.40;40.14;100492.50;5031793;28;20029;-82
2023/06/19 11:12:21;;;;;;;9.10;3.05;;;;;;;30.53;39.82;100476.31;5031184;28;20425;-82
2023/06/19 11:14:49;;;;;;;8.95;3.90;;;;;;;30.70;39.79;100481.78;5013104;28;20398;-82
2023/06/19 11:17:15;;;;;;;7.60;3.67;;;;;;;30.53;38.66;100461.56;5030554;28;20393;-83